Main page
METAR-TAF:

METAR-TAF

Airports :

Rhodes International Airport

Rhodes, Greece

latitude: 36-24N, longitude: 028-05E, elevation: 4 m

Current weather observation

The report was made 24 minutes ago, at 00:50 UTC
Wind 7 kt from the Southwest
Temperature 22°C
Humidity 88%
Pressure 1012 hPa
Visibility 10 km or more
Few clouds at a height of 1800 ft

METAR: LGRP 260050Z 22007KT 9999 FEW018 22/20 Q1012

Time: 03:14 (01:14 UTC)

Forecast

The report was made 2 hours and 14 minutes ago, at 23:00 UTC
Forecast valid from 26 at 00 UTC to 26 at 24 UTC
Wind 10 kt from the West/Southwest
Visibility 10 km or more
Few clouds at a height of 1800 ft

TAF: LGRP 252300Z 2600/2624 25010KT 9999 FEW018

Weather observations and forecasts of more than 4000 airports (METAR and TAF reports).

The available stations are represented by yellow and red dots on the map.

Hover mouse over dot to see the name of the station.

Then click to see weather observations and forecasts.

To change the map : click on the green buttons with a black cross to zoom in, on the green button with a dash to zoom out, or on the green arrows for adjacent maps.


METAR-TAF: